• Join FlightAware (Why Join?)
  • Login
  • US Flag 
03:15PM EDT


 

Airport Tracker/Info


-or-


 

Live Flight TrackerFlight Track Log ✈ UPS2872 ✈ 17-Jul-2013 ✈ KSDF - KABQ

Flight Track Log - Related Links

Times and Time Zones

All times are in EDT time to prevent confusion due to time zone crossing. See the UPS2872 flight status page for this flight to view local times or setup timezone preferences in your user account.

Time Position Orientation Groundspeed Altitude Reporting Facility
EDT Latitude Longitude Course Direction KTS MPH feet Rate Location/Type
05:08PM 38.2570 -85.7940 317° Northwest 256 295 3,800  Level FlightAware
05:10PM 38.2410 -86.0110 265° West 264 304 10,300 1,980 Climbing FlightAware
05:12PM 38.2160 -86.2120 261° West 341 392 12,100 1,800 Climbing FlightAware
05:12PM 38.1850 -86.3290 251° West 388 447 15,100 4,380 Climbing FlightAware
05:13PM 38.1760 -86.4090 262° West 392 451 17,600 2,100 Climbing FlightAware
05:14PM 38.1710 -86.5370 267° West 392 451 18,400 1,380 Climbing FlightAware
05:15PM 38.1920 -86.6530 283° West 411 473 20,000 1,260 Climbing FlightAware
05:15PM 38.1980 -86.7260 276° West 411 473 20,000 1,680 Level FlightAware
05:16PM 38.1760 -86.8920 260° West 460 529 22,600 2,340 Climbing FlightAware
05:17PM 38.1610 -86.9970 260° West 469 540 23,700 1,560 Climbing FlightAware
05:17PM 38.1470 -87.0990 260° West 476 548 24,600 1,380 Climbing FlightAware
05:18PM 38.1340 -87.1960 260° West 484 557 25,400 1,380 Climbing FlightAware
05:19PM 38.1170 -87.3190 260° West 492 566 26,400 1,380 Climbing FlightAware
05:19PM 38.1030 -87.4200 260° West 494 568 27,300 1,500 Climbing FlightAware
05:20PM 38.0840 -87.5530 260° West 493 567 28,500 1,500 Climbing FlightAware
05:21PM 38.0700 -87.6530 260° West 491 565 29,400 1,440 Climbing FlightAware
05:21PM 38.0490 -87.7950 259° West 488 562 30,600 1,440 Climbing FlightAware
05:22PM 38.0340 -87.9040 260° West 481 554 31,600 1,080 Climbing FlightAware
05:23PM 38.0170 -88.0170 259° West 480 552 32,100 300 Climbing FlightAware
05:24PM 37.9990 -88.1440 260° West 474 545 32,100 -120 Level FlightAware
05:24PM 37.9830 -88.2500 259° West 471 542 32,000  Descending FlightAware
05:25PM 37.9650 -88.3730 260° West 474 545 32,100 60 Climbing FlightAware
05:26PM 37.9490 -88.4830 260° West 476 548 32,100  Level FlightAware
05:26PM 37.9320 -88.5970 259° West 478 550 32,100  Level FlightAware
05:27PM 37.9240 -88.7090 265° West 479 551 32,100  Level FlightAware
05:28PM 37.9170 -88.8280 266° West 478 550 32,100  Level FlightAware
05:28PM 37.9090 -88.9430 265° West 477 549 32,100 -120 Level FlightAware
05:29PM 37.9010 -89.0650 265° West 477 549 32,000  Descending FlightAware
05:30PM 37.8930 -89.1800 265° West 478 550 32,100 60 Climbing FlightAware
05:31PM 37.8840 -89.3040 265° West 478 550 32,100  Level FlightAware
05:31PM 37.8760 -89.4170 265° West 480 552 32,100  Level FlightAware
05:32PM 37.8690 -89.5240 265° West 483 556 32,100  Level FlightAware
05:33PM 37.8590 -89.6550 265° West 483 556 32,100  Level FlightAware
05:33PM 37.8520 -89.7420 264° West 483 556 32,100  Level FlightAware
05:34PM 37.8440 -89.8330 264° West 483 556 32,100  Level FlightAware
05:35PM 37.8350 -89.9790 266° West 482 555 32,100  Level FlightAware
05:35PM 37.8250 -90.0920 264° West 482 555 32,100  Level FlightAware
05:36PM 37.8180 -90.1780 264° West 482 555 32,100  Level FlightAware
05:37PM 37.8110 -90.2640 264° West 482 555 32,100  Level FlightAware
05:38PM 37.7990 -90.4070 264° West 482 555 32,100  Level FlightAware
05:38PM 37.7920 -90.4930 264° West 482 555 32,100  Level FlightAware
05:39PM 37.7800 -90.6360 264° West 482 555 32,100  Level FlightAware
05:40PM 37.7730 -90.7220 264° West 482 555 32,100  Level FlightAware
05:41PM 37.7630 -90.8390 264° West 482 555 32,100  Level FlightAware
05:41PM 37.7560 -90.9250 264° West 482 555 32,100  Level FlightAware
05:42PM 37.7490 -91.0100 264° West 482 555 32,100  Level FlightAware
05:43PM 37.7390 -91.1270 264° West 482 555 32,100  Level FlightAware
05:43PM 37.7320 -91.2130 264° West 482 555 32,100  Level FlightAware
05:44PM 37.7310 -91.5410 270° West 481 554 32,100  Level FlightAware
05:45PM 37.7210 -91.6570 264° West 479 551 32,100  Level FlightAware
05:45PM 37.7100 -91.7700 263° West 478 550 32,100  Level FlightAware
05:46PM 37.6990 -91.8830 263° West 476 548 32,100  Level FlightAware
05:47PM 37.6880 -92.0010 263° West 473 544 32,100 -120 Level FlightAware
05:47PM 37.6770 -92.1210 263° West 474 545 32,000  Descending FlightAware
05:48PM 37.6660 -92.2310 263° West 477 549 32,100 60 Climbing FlightAware
05:49PM 37.6550 -92.3410 263° West 479 551 32,100  Level FlightAware
05:49PM 37.6430 -92.4650 263° West 479 551 32,100  Level FlightAware
05:50PM 37.6310 -92.5860 263° West 477 549 32,100  Level FlightAware
05:51PM 37.6200 -92.6970 263° West 476 548 32,100  Level FlightAware
05:52PM 37.6080 -92.8160 263° West 476 548 32,100  Level FlightAware
05:52PM 37.5980 -92.9100 262° West 475 547 32,100  Level FlightAware
05:53PM 37.5850 -93.0320 262° West 475 547 32,100  Level FlightAware
05:54PM 37.5740 -93.1400 263° West 474 545 32,100  Level FlightAware
05:54PM 37.5620 -93.2480 262° West 473 544 32,100  Level FlightAware
05:55PM 37.5500 -93.3650 263° West 472 543 32,100  Level FlightAware
05:56PM 37.5370 -93.4830 262° West 470 541 32,100  Level FlightAware
05:56PM 37.5250 -93.5930 262° West 471 542 32,100  Level FlightAware
05:57PM 37.5150 -93.6890 263° West 471 542 32,100  Level FlightAware
05:58PM 37.5020 -93.8030 262° West 472 543 32,100  Level FlightAware
05:58PM 37.4890 -93.9210 262° West 471 542 32,100  Level FlightAware
05:59PM 37.4760 -94.0320 262° West 470 541 32,100  Level FlightAware
06:00PM 37.4620 -94.1510 262° West 470 541 32,100  Level FlightAware
06:00PM 37.4500 -94.2600 262° West 469 540 32,100  Level FlightAware
06:01PM 37.4370 -94.3720 262° West 470 541 32,100  Level FlightAware
06:02PM 37.4230 -94.4880 261° West 473 544 32,100  Level FlightAware
06:03PM 37.4100 -94.6060 262° West 474 545 32,100  Level FlightAware
06:03PM 37.3960 -94.7180 261° West 475 547 32,100  Level FlightAware
06:04PM 37.3830 -94.8290 262° West 474 545 32,100  Level FlightAware
06:05PM 37.3680 -94.9500 261° West 471 542 32,100  Level FlightAware
06:05PM 37.3550 -95.0550 261° West 471 542 32,100  Level FlightAware
06:06PM 37.3430 -95.1520 261° West 469 540 32,100  Level FlightAware
06:07PM 37.3300 -95.2610 262° West 469 540 32,100  Level FlightAware
06:07PM 37.3150 -95.3770 261° West 467 537 32,100  Level FlightAware
06:08PM 37.3030 -95.4740 261° West 466 536 32,100  Level FlightAware
06:09PM 37.2900 -95.5790 261° West 466 536 32,100  Level FlightAware
06:09PM 37.2740 -95.7010 261° West 467 537 32,100  Level FlightAware
06:10PM 37.2620 -95.7980 261° West 467 537 32,100  Level FlightAware
06:11PM 37.2330 -96.0170 261° West 467 537 32,100  Level FlightAware
06:12PM 37.2200 -96.1190 261° West 467 537 32,100  Level FlightAware
06:13PM 37.2070 -96.2190 261° West 466 536 32,100  Level FlightAware
06:13PM 37.1910 -96.3370 260° West 466 536 32,100  Level FlightAware
06:14PM 37.1760 -96.4480 260° West 467 537 32,100  Level FlightAware
06:15PM 37.1600 -96.5610 260° West 469 540 32,100  Level FlightAware
06:15PM 37.1440 -96.6790 260° West 469 540 32,100  Level FlightAware
06:16PM 37.1290 -96.7870 260° West 468 539 32,100  Level FlightAware
06:17PM 37.1170 -96.8800 261° West 467 537 32,100  Level FlightAware
06:17PM 37.1020 -96.9880 260° West 467 537 32,100  Level FlightAware
06:18PM 37.0850 -97.1070 260° West 467 537 32,100  Level FlightAware
06:19PM 37.0710 -97.2000 259° West 467 537 32,100  Level FlightAware
06:19PM 37.0560 -97.3090 260° West 467 537 32,100  Level FlightAware
06:22PM 36.9960 -97.7260 260° West 470 541 32,100  Level FlightAware
06:23PM 36.9690 -97.9100 260° West 471 542 32,100  Level FlightAware
06:24PM 36.9430 -98.0780 259° West 472 543 32,100 -120 Level FlightAware
06:25PM 36.9280 -98.1810 260° West 474 545 32,000  Descending FlightAware
06:26PM 36.9110 -98.2940 259° West 476 548 32,100  Climbing FlightAware
06:27PM 36.8810 -98.4890 259° West 474 545 32,100  Level FlightAware
06:28PM 36.8610 -98.6100 258° West 475 547 32,100  Level FlightAware
06:28PM 36.8430 -98.7190 258° West 475 547 32,100  Level FlightAware
06:29PM 36.8290 -98.8010 258° West 475 547 32,100  Level FlightAware
06:30PM 36.8150 -98.8840 258° West 475 547 32,100  Level FlightAware
06:30PM 36.7960 -98.9930 258° West 475 547 32,100  Level FlightAware
06:31PM 36.7770 -99.1540 262° West 473 544 32,100  Level FlightAware
06:31PM 36.7620 -99.2380 257° West 473 544 32,100  Level FlightAware
06:32PM 36.7440 -99.3470 258° West 473 544 32,100  Level FlightAware
06:33PM 36.7300 -99.4290 258° West 473 544 32,100  Level FlightAware
06:34PM 36.7110 -99.5380 258° West 473 544 32,100  Level FlightAware
06:34PM 36.7020 -99.5940 259° West 473 544 32,100  Level FlightAware
06:35PM 36.6830 -99.7030 258° West 473 544 32,100  Level FlightAware
06:36PM 36.6690 -99.7850 258° West 473 544 32,100  Level FlightAware
06:36PM 36.6550 -99.8670 258° West 473 544 32,100  Level FlightAware
06:37PM 36.6360 -99.9780 258° West 473 544 32,100  Level FlightAware
06:37PM 36.6230 -100.0550 258° West 473 544 32,100  Level FlightAware
06:38PM 36.6090 -100.1360 258° West 473 544 32,100  Level FlightAware
06:39PM 36.5910 -100.2450 258° West 473 544 32,100  Level FlightAware
06:39PM 36.5770 -100.3270 258° West 473 544 32,100  Level FlightAware
06:40PM 36.5580 -100.4360 258° West 473 544 32,100  Level FlightAware
06:41PM 36.5108 -100.7439 258° West 482 555 32,100  Level Kansas City Center
06:42PM 36.4792 -100.9261 258° West 483 556 32,100  Level Kansas City Center
06:43PM 36.4519 -101.0814 258° West 481 554 32,100  Level Kansas City Center
06:44PM 36.4194 -101.2628 257° West 481 554 32,100  Level Kansas City Center
06:45PM 36.3889 -101.4336 258° West 478 550 32,100  Level Kansas City Center
06:46PM 36.3600 -101.5933 257° West 478 550 32,100  Level Kansas City Center
06:47PM 36.3306 -101.7531 257° West 477 549 32,100 -60 Level Kansas City Center
06:48PM 36.3008 -101.9144 257° West 482 555 32,000  Descending Kansas City Center
06:49PM 36.2706 -102.0733 257° West 479 551 32,100  Climbing Kansas City Center
06:50PM 36.2344 -102.2706 257° West 484 557 32,100  Level Albuquerque Center
06:51PM 36.2036 -102.4328 257° West 488 562 32,100  Level Albuquerque Center
06:52PM 36.1728 -102.5956 257° West 490 564 32,100  Level Albuquerque Center
06:54PM 36.1339 -102.7862 256° West  Level FlightAware Approximate
06:54PM 36.1061 -102.9408 256° West 487 560 32,100  Level Albuquerque Center
06:55PM 36.0742 -103.1050 257° West 490 564 32,100  Level Albuquerque Center
06:56PM 36.0417 -103.2703 256° West 493 567 32,100  Level Albuquerque Center
06:57PM 36.0089 -103.4358 256° West 494 568 32,100  Level Albuquerque Center
06:58PM 35.9758 -103.6014 256° West 495 570 32,100  Level Albuquerque Center
06:59PM 35.9425 -103.7667 256° West 494 568 32,100  Level Albuquerque Center
07:00PM 35.9092 -103.9317 256° West 494 568 32,100  Level Albuquerque Center
07:01PM 35.8883 -104.1008 261° West 499 574 32,100  Level Albuquerque Center
07:03PM 35.8708 -104.2708 263° West 499 574 32,100 -60 Level Albuquerque Center
07:04PM 35.8494 -104.4686 262° West 498 573 32,000 -60 Descending Albuquerque Center
07:05PM 35.8311 -104.6386 262° West 501 577 32,000  Level Albuquerque Center
07:06PM 35.8122 -104.8106 262° West 505 581 32,000 -120 Level Albuquerque Center
07:07PM 35.7931 -104.9822 262° West 506 582 31,800 -840 Descending Albuquerque Center
07:08PM 35.7733 -105.1550 262° West 508 585 30,400 -1,860 Descending Albuquerque Center
07:09PM 35.7533 -105.3278 262° West 507 583 28,100 -2,100 Descending Albuquerque Center
07:15PM 35.5360 -106.2830 262° West 418 481 15,800 -2,040 Descending FlightAware
07:15PM 35.5100 -106.3820 252° West 410 472 14,400 -1,440 Descending FlightAware
07:16PM 35.4580 -106.4570 230° Southwest 381 438 13,700 -540 Descending FlightAware
07:17PM 35.4000 -106.5080 216° Southwest 374 430 13,700 -360 Level FlightAware
07:18PM 35.3380 -106.5620 215° Southwest 367 422 13,200 -1,440 Descending FlightAware
07:18PM 35.2830 -106.6110 216° Southwest 361 415 11,700 -1,980 Descending FlightAware
07:19PM 35.2270 -106.6480 208° Southwest 331 381 10,600 -1,380 Descending FlightAware
07:20PM 35.1650 -106.6650 193° South 298 343 9,800 -1,380 Descending FlightAware
07:20PM 35.1270 -106.6830 201° Southwest 290 334 8,900 -1,560 Descending FlightAware
07:21PM 35.0930 -106.7000 202° Southwest 285 328 8,300 -1,440 Descending FlightAware
07:21PM 35.0590 -106.7160 201° Southwest 284 327 7,600 -1,320 Descending FlightAware
07:22PM 35.0240 -106.7330 202° Southwest 272 313 7,100 -660 Descending FlightAware
07:22PM 35.0020 -106.7430 200° South 250 288 7,100  Level FlightAware
07:22PM 34.9790 -106.7540 201° Southwest 223 257 7,100  Level FlightAware
07:23PM 34.9570 -106.7640 200° South 223 257 7,100  Level FlightAware
07:23PM 34.9410 -106.7530 151° Southeast 201 231 7,100  Level FlightAware
07:23PM 34.9370 -106.7330 104° East 196 226 7,100 -600 Level FlightAware
07:24PM 34.9430 -106.7210 59° Northeast 193 222 6,800 -540 Descending FlightAware
07:24PM 34.9750 -106.6878 59° Northeast 150 173 6,500 -420 Descending Albuquerque Center
07:25PM 34.9856 -106.6722 50° Northeast 179 206 6,200 -780 Descending Albuquerque Center
07:26PM 35.0086 -106.6481 41° Northeast 151 174 5,700 -960 Descending Albuquerque Center
07:28PM 35.0333 -106.6000 90° East  Level FlightAware Approximate